createdAt,value
2018-07-11T00:01:41.712Z,0.70
2018-07-11T00:04:14.321Z,1.00
2018-07-11T00:06:46.813Z,1.20
2018-07-11T00:09:19.524Z,1.10
2018-07-11T00:11:51.886Z,0.97
2018-07-11T00:14:24.268Z,1.10
2018-07-11T00:17:01.556Z,0.90
2018-07-11T00:19:34.421Z,1.30
2018-07-11T00:22:08.275Z,1.07
2018-07-11T00:24:40.789Z,1.10
2018-07-11T00:27:13.547Z,1.10
2018-07-11T00:29:46.260Z,0.90
2018-07-11T00:32:19.331Z,1.03
2018-07-11T00:34:52.122Z,1.20
2018-07-11T00:37:25.314Z,1.30
2018-07-11T00:39:58.250Z,1.10
2018-07-11T00:42:31.345Z,1.20
2018-07-11T00:45:04.498Z,1.40
2018-07-11T00:47:35.956Z,1.70
2018-07-11T00:50:08.916Z,1.07
2018-07-11T00:52:41.900Z,1.37
2018-07-11T00:55:14.259Z,0.90
2018-07-11T00:57:47.814Z,1.10
2018-07-11T01:00:20.858Z,1.30
2018-07-11T01:02:53.813Z,1.00
2018-07-11T01:05:26.465Z,1.20
2018-07-11T01:07:59.370Z,0.83
2018-07-11T01:10:32.547Z,0.90
2018-07-11T01:13:05.565Z,1.27
2018-07-11T01:15:38.351Z,1.37
2018-07-11T01:18:14.662Z,0.97
2018-07-11T01:20:47.602Z,0.90
2018-07-11T01:23:20.423Z,0.90
2018-07-11T01:25:52.928Z,0.90
2018-07-11T01:28:25.439Z,1.20
2018-07-11T01:30:58.090Z,0.90
2018-07-11T01:33:30.804Z,0.70
2018-07-11T01:36:04.799Z,0.87
2018-07-11T01:38:38.195Z,1.00
2018-07-11T01:41:10.784Z,0.87
2018-07-11T01:43:43.481Z,1.00
2018-07-11T01:46:16.951Z,1.00
2018-07-11T01:48:49.668Z,1.00
2018-07-11T01:51:22.824Z,0.97
2018-07-11T01:53:55.994Z,0.90
2018-07-11T01:56:28.996Z,0.80
2018-07-11T01:59:01.775Z,0.80
2018-07-11T02:01:35.015Z,0.70
2018-07-11T02:04:07.788Z,0.90
2018-07-11T02:06:40.221Z,0.70
2018-07-11T02:09:12.899Z,1.20
2018-07-11T02:11:46.025Z,0.90
2018-07-11T02:14:19.280Z,0.80
2018-07-11T02:16:52.618Z,1.00
2018-07-11T02:19:25.417Z,0.93
2018-07-11T02:21:59.681Z,0.70
2018-07-11T02:24:33.696Z,0.83
2018-07-11T02:27:06.198Z,1.00
2018-07-11T02:29:39.516Z,0.90
2018-07-11T02:32:12.406Z,0.80
2018-07-11T02:34:45.521Z,0.60
2018-07-11T02:37:18.225Z,1.13
2018-07-11T02:39:50.542Z,0.67
2018-07-11T02:42:24.379Z,0.80
2018-07-11T02:44:57.187Z,0.90
2018-07-11T02:47:35.268Z,0.80
2018-07-11T02:50:07.645Z,1.00
2018-07-11T02:52:40.035Z,0.93
2018-07-11T02:55:12.430Z,0.90
2018-07-11T02:57:44.850Z,0.97
2018-07-11T03:00:17.836Z,0.90
2018-07-11T03:02:50.474Z,1.07
2018-07-11T03:05:23.367Z,0.70
2018-07-11T03:07:56.460Z,0.93
2018-07-11T03:10:28.767Z,0.83
2018-07-11T03:13:01.340Z,1.10
2018-07-11T03:15:34.111Z,0.80
2018-07-11T03:18:06.891Z,0.90
2018-07-11T03:20:39.454Z,0.83
2018-07-11T03:23:12.288Z,1.30
2018-07-11T03:25:45.034Z,1.10
2018-07-11T03:28:18.211Z,0.80
2018-07-11T03:30:50.932Z,0.90
2018-07-11T03:33:23.437Z,0.93
2018-07-11T03:35:56.146Z,1.07
2018-07-11T03:38:28.661Z,0.97
2018-07-11T03:41:01.251Z,1.10
2018-07-11T03:43:33.425Z,0.70
2018-07-11T03:46:05.797Z,1.20
2018-07-11T03:48:38.828Z,0.90
2018-07-11T03:51:11.408Z,1.20
2018-07-11T03:53:43.839Z,0.87
2018-07-11T03:56:16.280Z,1.00
2018-07-11T03:58:50.574Z,0.80
2018-07-11T04:01:25.370Z,1.10
2018-07-11T04:03:59.750Z,1.53
2018-07-11T04:06:32.513Z,0.93
2018-07-11T04:09:05.078Z,0.93
2018-07-11T04:11:37.523Z,1.10
2018-07-11T04:14:10.155Z,0.80
2018-07-11T04:16:42.909Z,2.90
2018-07-11T04:19:15.304Z,1.43
2018-07-11T04:21:47.653Z,1.47
2018-07-11T04:24:20.141Z,1.07
2018-07-11T04:26:53.311Z,1.10
2018-07-11T04:29:25.747Z,1.40
2018-07-11T04:31:59.318Z,1.37
2018-07-11T04:34:31.965Z,1.10
2018-07-11T04:37:05.580Z,1.10
2018-07-11T04:39:38.139Z,1.50
2018-07-11T04:42:10.269Z,1.50
2018-07-11T04:44:43.085Z,1.10
2018-07-11T04:47:16.236Z,1.10
2018-07-11T04:49:49.661Z,1.00
2018-07-11T04:52:22.075Z,1.00
2018-07-11T04:54:55.563Z,1.37
2018-07-11T04:57:29.043Z,1.10
2018-07-11T05:00:01.784Z,1.30
2018-07-11T05:02:34.446Z,1.10
2018-07-11T05:05:06.638Z,1.70
2018-07-11T05:07:39.402Z,1.10
2018-07-11T05:10:11.919Z,0.97
2018-07-11T05:12:44.668Z,1.30
2018-07-11T05:15:17.108Z,1.30
2018-07-11T05:17:49.859Z,2.20
2018-07-11T05:20:22.246Z,1.60
2018-07-11T05:22:55.419Z,1.60
2018-07-11T05:25:27.992Z,1.77
2018-07-11T05:28:01.199Z,1.70
2018-07-11T05:30:34.131Z,1.83
2018-07-11T05:33:06.849Z,1.43
2018-07-11T05:35:39.395Z,1.63
2018-07-11T05:38:12.052Z,1.30
2018-07-11T05:40:44.719Z,1.60
2018-07-11T05:43:17.436Z,1.40
2018-07-11T05:45:49.687Z,1.30
2018-07-11T05:48:23.606Z,1.10
2018-07-11T05:50:56.205Z,1.40
2018-07-11T05:53:28.633Z,1.40
2018-07-11T05:56:01.119Z,1.20
2018-07-11T05:58:34.029Z,1.30
2018-07-11T06:01:07.053Z,1.60
2018-07-11T06:03:39.664Z,1.60
2018-07-11T06:06:12.814Z,1.33
2018-07-11T06:08:45.364Z,1.40
2018-07-11T06:11:24.054Z,1.20
2018-07-11T06:13:56.541Z,1.60
2018-07-11T06:16:29.526Z,1.87
2018-07-11T06:19:02.104Z,1.50
2018-07-11T06:21:34.703Z,1.53
2018-07-11T06:24:07.153Z,1.40
2018-07-11T06:26:39.555Z,1.57
2018-07-11T06:29:12.535Z,1.80
2018-07-11T06:31:45.129Z,1.50
2018-07-11T06:34:17.497Z,1.80
2018-07-11T06:36:49.670Z,1.73
2018-07-11T06:39:22.246Z,1.73
2018-07-11T06:41:54.578Z,1.37
2018-07-11T06:44:27.378Z,1.30
2018-07-11T06:47:03.832Z,1.67
2018-07-11T06:49:36.427Z,1.70
2018-07-11T06:52:09.410Z,1.70
2018-07-11T06:54:41.784Z,1.53
2018-07-11T06:57:14.136Z,1.90
2018-07-11T06:59:46.976Z,1.47
2018-07-11T07:02:19.558Z,1.50
2018-07-11T07:04:52.068Z,1.50
2018-07-11T07:07:26.605Z,1.60
2018-07-11T07:09:59.360Z,1.40
2018-07-11T07:12:32.402Z,1.93
2018-07-11T07:15:05.157Z,1.97
2018-07-11T07:17:37.739Z,1.53
2018-07-11T07:20:10.329Z,1.70
2018-07-11T07:22:42.958Z,2.00
2018-07-11T07:25:15.413Z,1.50
2018-07-11T07:27:47.545Z,1.60
2018-07-11T07:30:19.709Z,1.40
2018-07-11T07:32:52.161Z,1.97
2018-07-11T07:35:24.589Z,1.90
2018-07-11T07:37:57.112Z,2.30
2018-07-11T07:40:29.701Z,2.00
2018-07-11T07:43:01.893Z,1.70
2018-07-11T07:45:35.038Z,1.87
2018-07-11T07:48:07.402Z,1.80
2018-07-11T07:50:39.880Z,2.17
2018-07-11T07:53:12.722Z,2.03
2018-07-11T07:55:45.531Z,1.90
2018-07-11T07:58:18.011Z,1.83
2018-07-11T08:00:50.525Z,1.90
2018-07-11T08:03:23.231Z,1.67
2018-07-11T08:05:55.740Z,1.87
2018-07-11T08:08:28.328Z,1.70
2018-07-11T08:11:00.712Z,1.93
2018-07-11T08:13:33.126Z,1.83
2018-07-11T08:16:06.254Z,1.90
2018-07-11T08:18:38.844Z,1.70
2018-07-11T08:21:11.804Z,2.23
2018-07-11T08:23:53.422Z,2.00
2018-07-11T08:26:35.010Z,1.53
2018-07-11T08:30:19.818Z,1.80
2018-07-11T08:33:05.528Z,1.40
2018-07-11T08:36:02.318Z,2.07
2018-07-11T08:40:50.653Z,1.93
2018-07-11T08:43:31.693Z,1.83
2018-07-11T08:46:40.579Z,1.57
2018-07-11T08:49:22.942Z,2.00
2018-07-11T08:52:06.971Z,2.10
2018-07-11T08:56:52.145Z,2.33
2018-07-11T08:59:36.283Z,1.47
2018-07-11T09:05:25.631Z,2.10
2018-07-11T09:08:16.441Z,2.03
2018-07-11T09:12:00.660Z,1.67
2018-07-11T09:14:42.715Z,2.07
2018-07-11T09:17:36.793Z,1.80
2018-07-11T09:20:17.596Z,1.60
2018-07-11T09:22:59.125Z,1.87
2018-07-11T09:25:31.535Z,1.73
2018-07-11T09:28:04.063Z,1.90
2018-07-11T09:30:36.858Z,2.27
2018-07-11T09:33:09.254Z,1.90
2018-07-11T09:35:41.803Z,2.17
2018-07-11T09:38:14.561Z,1.73
2018-07-11T09:40:47.503Z,1.90
2018-07-11T09:43:19.898Z,2.13
2018-07-11T09:45:52.650Z,1.70
2018-07-11T09:48:25.306Z,1.80
2018-07-11T09:50:58.033Z,2.50
2018-07-11T09:53:31.335Z,1.87
2018-07-11T09:56:04.329Z,2.30
2018-07-11T09:58:37.727Z,2.13
2018-07-11T10:01:15.236Z,2.43
2018-07-11T10:03:48.604Z,2.60
2018-07-11T10:06:21.209Z,2.50
2018-07-11T10:08:54.166Z,2.40
2018-07-11T10:11:26.925Z,2.00
2018-07-11T10:14:00.373Z,2.90
2018-07-11T10:16:33.578Z,1.97
2018-07-11T10:19:06.719Z,2.53
2018-07-11T10:21:39.350Z,2.50
2018-07-11T10:24:12.129Z,2.70
2018-07-11T10:26:44.695Z,2.93
2018-07-11T10:29:17.263Z,3.13
2018-07-11T10:31:49.697Z,3.00
2018-07-11T10:34:22.131Z,3.00
2018-07-11T10:36:53.535Z,3.60
2018-07-11T10:39:25.709Z,3.10
2018-07-11T10:41:57.967Z,3.17
2018-07-11T10:44:30.630Z,2.47
2018-07-11T10:47:14.014Z,3.20
2018-07-11T10:49:46.900Z,3.13
2018-07-11T10:52:19.448Z,3.00
2018-07-11T10:54:52.255Z,3.00
2018-07-11T10:57:25.289Z,3.30
2018-07-11T10:59:57.939Z,2.93
2018-07-11T11:02:30.639Z,2.90
2018-07-11T11:05:03.377Z,2.73
2018-07-11T11:07:36.566Z,3.27
2018-07-11T11:10:08.971Z,3.33
2018-07-11T11:12:41.909Z,2.60
2018-07-11T11:15:14.522Z,3.13
2018-07-11T11:17:45.968Z,3.50
2018-07-11T11:20:18.595Z,3.07
2018-07-11T11:22:51.300Z,3.67
2018-07-11T11:25:23.495Z,3.03
2018-07-11T11:27:56.294Z,3.30
2018-07-11T11:30:29.338Z,3.47
2018-07-11T11:33:01.913Z,3.10
2018-07-11T11:35:35.247Z,3.70
2018-07-11T11:38:07.804Z,3.03
2018-07-11T11:40:40.187Z,2.70
2018-07-11T11:43:12.521Z,3.63
2018-07-11T11:45:44.897Z,2.87
2018-07-11T11:48:17.429Z,3.00
2018-07-11T11:50:49.893Z,3.50
2018-07-11T11:53:22.314Z,3.00
2018-07-11T11:55:54.610Z,3.33
2018-07-11T11:58:26.160Z,2.80
2018-07-11T12:00:58.594Z,3.73
2018-07-11T12:03:30.763Z,3.20
2018-07-11T12:06:04.305Z,2.40
2018-07-11T12:08:36.900Z,3.20
2018-07-11T12:11:09.480Z,3.80
2018-07-11T12:13:42.174Z,3.83
2018-07-11T12:16:15.209Z,3.90
2018-07-11T12:18:47.606Z,3.20
2018-07-11T12:21:20.787Z,3.37
2018-07-11T12:23:53.519Z,4.53
2018-07-11T12:26:26.472Z,3.60
2018-07-11T12:28:59.314Z,3.43
2018-07-11T12:31:31.698Z,3.83
2018-07-11T12:34:04.470Z,3.33
2018-07-11T12:36:36.849Z,3.77
2018-07-11T12:39:09.680Z,3.93
2018-07-11T12:41:42.448Z,3.97
2018-07-11T12:44:14.884Z,4.13
2018-07-11T12:46:48.604Z,4.50
2018-07-11T12:49:21.594Z,3.90
2018-07-11T12:51:53.986Z,3.47
2018-07-11T12:54:26.572Z,3.67
2018-07-11T12:56:59.179Z,3.53
2018-07-11T12:59:33.584Z,3.90
2018-07-11T13:02:07.457Z,4.13
2018-07-11T13:04:39.914Z,4.20
2018-07-11T13:07:12.972Z,3.77
2018-07-11T13:09:45.523Z,3.87
2018-07-11T13:12:17.889Z,3.30
2018-07-11T13:14:50.504Z,3.73
2018-07-11T13:17:23.188Z,3.53
2018-07-11T13:19:55.479Z,4.10
2018-07-11T13:22:27.891Z,4.10
2018-07-11T13:25:00.329Z,3.50
2018-07-11T13:27:32.559Z,4.20
2018-07-11T13:30:06.067Z,3.07
2018-07-11T13:32:38.588Z,3.60
2018-07-11T13:35:11.159Z,3.67
2018-07-11T13:37:43.856Z,3.83
2018-07-11T13:40:16.727Z,3.40
2018-07-11T13:42:49.163Z,3.97
2018-07-11T13:45:21.552Z,3.23
2018-07-11T13:47:58.436Z,3.33
2018-07-11T13:50:31.008Z,3.70
2018-07-11T13:53:04.018Z,8.73
2018-07-11T13:55:36.622Z,19.43
2018-07-11T13:58:09.381Z,3.50
2018-07-11T14:00:42.775Z,3.20
2018-07-11T14:03:15.564Z,4.10
2018-07-11T14:05:48.353Z,3.57
2018-07-11T14:08:21.077Z,3.03
2018-07-11T14:10:54.122Z,2.80
2018-07-11T14:13:26.922Z,3.20
2018-07-11T14:15:59.714Z,3.03
2018-07-11T14:18:34.582Z,3.60
2018-07-11T14:21:07.300Z,3.87
2018-07-11T14:23:43.961Z,2.87
2018-07-11T14:26:22.461Z,4.10
2018-07-11T14:28:55.275Z,3.83
2018-07-11T14:31:38.109Z,3.70
2018-07-11T14:34:11.461Z,3.93
2018-07-11T14:36:43.889Z,3.50
2018-07-11T14:39:16.538Z,3.60
2018-07-11T14:41:49.124Z,3.53
2018-07-11T14:44:22.675Z,3.27
2018-07-11T14:46:55.298Z,3.83
2018-07-11T14:49:26.685Z,3.27
2018-07-11T14:51:59.277Z,3.17
2018-07-11T14:54:31.697Z,2.87
2018-07-11T14:57:04.483Z,3.53
2018-07-11T14:59:36.329Z,3.10
2018-07-11T15:02:09.305Z,3.00
2018-07-11T15:04:42.514Z,2.70
2018-07-11T15:07:15.040Z,3.27
2018-07-11T15:09:47.696Z,3.53
2018-07-11T15:12:19.881Z,3.50
2018-07-11T15:14:53.005Z,3.17
2018-07-11T15:17:25.556Z,3.50
2018-07-11T15:19:58.983Z,3.20
2018-07-11T15:22:31.803Z,2.70
2018-07-11T15:25:04.393Z,2.90
2018-07-11T15:27:37.003Z,2.50
2018-07-11T15:30:09.384Z,2.83
2018-07-11T15:32:42.239Z,2.70
2018-07-11T15:35:14.836Z,2.60
2018-07-11T15:37:48.250Z,2.50
2018-07-11T15:40:20.942Z,3.20
2018-07-11T15:42:54.352Z,2.50
2018-07-11T15:45:27.276Z,2.80
2018-07-11T15:48:01.558Z,2.57
2018-07-11T15:50:34.976Z,2.80
2018-07-11T15:53:08.064Z,2.80
2018-07-11T15:55:40.729Z,2.70
2018-07-11T15:58:16.816Z,2.50
2018-07-11T16:00:50.061Z,2.67
2018-07-11T16:03:24.345Z,3.03
2018-07-11T16:05:57.857Z,2.50
2018-07-11T16:08:31.132Z,2.60
2018-07-11T16:11:06.757Z,3.07
2018-07-11T16:13:39.184Z,2.30
2018-07-11T16:16:11.637Z,2.27
2018-07-11T16:18:44.327Z,3.07
2018-07-11T16:21:16.701Z,2.40
2018-07-11T16:23:49.815Z,2.47
2018-07-11T16:26:22.589Z,2.57
2018-07-11T16:28:55.473Z,2.53
2018-07-11T16:31:28.187Z,3.00
2018-07-11T16:34:00.952Z,2.97
2018-07-11T16:36:33.974Z,2.60
2018-07-11T16:39:07.088Z,2.90
2018-07-11T16:41:40.130Z,2.77
2018-07-11T16:44:12.376Z,3.00
2018-07-11T16:46:45.488Z,2.93
2018-07-11T16:49:18.458Z,2.40
2018-07-11T16:51:53.745Z,2.60
2018-07-11T16:54:26.419Z,2.83
2018-07-11T16:57:00.944Z,2.57
2018-07-11T16:59:40.892Z,3.27
2018-07-11T17:02:14.043Z,2.00
2018-07-11T17:04:47.321Z,2.30
2018-07-11T17:07:23.157Z,1.93
2018-07-11T17:09:58.310Z,2.40
2018-07-11T17:12:32.651Z,2.80
2018-07-11T17:15:05.723Z,2.40
2018-07-11T17:17:38.583Z,2.63
2018-07-11T17:20:12.888Z,2.47
2018-07-11T17:22:51.779Z,2.10
2018-07-11T17:25:24.119Z,1.60
2018-07-11T17:28:02.221Z,2.10
2018-07-11T17:30:38.908Z,1.70
2018-07-11T17:33:12.138Z,2.03
2018-07-11T17:35:50.956Z,2.20
2018-07-11T17:38:29.430Z,1.80
2018-07-11T17:41:04.398Z,1.80
2018-07-11T17:43:39.608Z,1.90
2018-07-11T17:46:12.754Z,1.80
2018-07-11T17:48:52.361Z,1.83
2018-07-11T17:51:33.337Z,1.90
2018-07-11T17:54:06.946Z,2.13
2018-07-11T17:56:48.344Z,1.33
2018-07-11T17:59:25.379Z,1.80
2018-07-11T18:02:00.245Z,1.90
2018-07-11T18:04:44.133Z,1.90
2018-07-11T18:07:54.220Z,1.67
2018-07-11T18:10:39.057Z,1.83
2018-07-11T18:13:28.529Z,1.73
2018-07-11T18:18:10.687Z,1.87
2018-07-11T18:20:53.698Z,1.43
2018-07-11T18:25:43.904Z,1.40
2018-07-11T18:28:28.592Z,1.80
2018-07-11T18:32:15.459Z,1.77
2018-07-11T18:35:10.589Z,1.53
2018-07-11T18:38:56.041Z,1.40
2018-07-11T18:43:55.435Z,1.60
2018-07-11T18:47:35.116Z,1.70
2018-07-11T18:50:22.796Z,1.37
2018-07-11T18:53:11.977Z,1.40
2018-07-11T18:56:21.104Z,1.53
2018-07-11T18:59:05.701Z,1.60
2018-07-11T19:02:46.305Z,1.83
2018-07-11T19:05:42.052Z,1.60
2018-07-11T19:08:57.579Z,1.60
2018-07-11T19:11:39.784Z,1.60
2018-07-11T19:14:12.897Z,1.50
2018-07-11T19:17:07.319Z,1.33
2018-07-11T19:19:50.269Z,2.07
2018-07-11T19:22:33.551Z,1.50
2018-07-11T19:25:24.575Z,1.60
2018-07-11T19:28:10.403Z,1.50
2018-07-11T19:31:17.868Z,2.07
2018-07-11T19:34:10.082Z,1.40
2018-07-11T19:37:04.116Z,1.43
2018-07-11T19:39:53.477Z,1.80
2018-07-11T19:42:42.014Z,1.83
2018-07-11T19:47:28.025Z,1.87
2018-07-11T19:50:24.809Z,1.70
2018-07-11T19:53:00.658Z,1.80
2018-07-11T19:55:40.307Z,1.90
2018-07-11T19:58:12.876Z,1.20
2018-07-11T20:00:45.639Z,1.63
2018-07-11T20:03:18.399Z,1.70
2018-07-11T20:05:53.343Z,1.80
2018-07-11T20:08:23.993Z,1.70
2018-07-11T20:10:56.567Z,1.53
2018-07-11T20:13:29.357Z,1.60
2018-07-11T20:16:02.151Z,1.60
2018-07-11T20:18:35.193Z,1.60
2018-07-11T20:21:07.851Z,1.67
2018-07-11T20:23:40.572Z,1.60
2018-07-11T20:26:13.002Z,1.67
2018-07-11T20:28:46.511Z,1.73
2018-07-11T20:31:19.109Z,1.70
2018-07-11T20:33:51.688Z,1.33
2018-07-11T20:36:24.624Z,1.30
2018-07-11T20:38:57.837Z,1.37
2018-07-11T20:41:30.517Z,1.63
2018-07-11T20:44:03.256Z,1.40
2018-07-11T20:46:36.699Z,1.50
2018-07-11T20:49:14.734Z,1.50
2018-07-11T20:51:47.201Z,1.50
2018-07-11T20:54:20.408Z,1.17
2018-07-11T20:56:52.800Z,1.20
2018-07-11T20:59:34.561Z,1.30
2018-07-11T21:02:16.378Z,1.70
2018-07-11T21:07:02.555Z,1.30
2018-07-11T21:09:47.405Z,1.47
2018-07-11T21:12:31.483Z,1.60
2018-07-11T21:15:13.272Z,1.20
2018-07-11T21:18:16.932Z,1.80
2018-07-11T21:20:50.989Z,1.80
2018-07-11T21:23:23.357Z,1.30
2018-07-11T21:25:55.913Z,1.70
2018-07-11T21:28:28.752Z,1.73
2018-07-11T21:31:01.479Z,1.23
2018-07-11T21:33:35.148Z,1.80
2018-07-11T21:36:08.000Z,1.20
2018-07-11T21:38:40.544Z,1.50
2018-07-11T21:41:13.707Z,1.50
2018-07-11T21:43:46.923Z,1.33
2018-07-11T21:46:19.104Z,1.33
2018-07-11T21:48:51.847Z,1.30
2018-07-11T21:51:24.407Z,1.60
2018-07-11T21:53:56.821Z,1.40
2018-07-11T21:56:29.240Z,1.30
2018-07-11T21:59:01.551Z,1.10
2018-07-11T22:01:34.177Z,1.50
2018-07-11T22:04:06.523Z,1.50
2018-07-11T22:06:39.303Z,1.30
2018-07-11T22:09:11.742Z,1.23
2018-07-11T22:11:44.594Z,1.23
2018-07-11T22:14:17.027Z,1.20
2018-07-11T22:16:49.582Z,1.57
2018-07-11T22:19:21.967Z,1.20
2018-07-11T22:21:51.487Z,1.20
2018-07-11T22:24:21.071Z,1.20
2018-07-11T22:26:51.005Z,1.43
2018-07-11T22:29:20.545Z,1.10
2018-07-11T22:31:50.206Z,1.43
2018-07-11T22:34:19.660Z,1.50
2018-07-11T22:36:49.546Z,1.50
2018-07-11T22:39:18.798Z,1.30
2018-07-11T22:41:48.340Z,1.27
2018-07-11T22:44:18.045Z,1.30
2018-07-11T22:46:47.722Z,1.50
2018-07-11T22:49:18.195Z,1.20
2018-07-11T22:51:47.876Z,1.40
2018-07-11T22:54:17.615Z,1.40
2018-07-11T22:56:47.280Z,1.30
2018-07-11T22:59:16.938Z,1.33
2018-07-11T23:01:47.034Z,1.00
2018-07-11T23:04:16.498Z,1.80
2018-07-11T23:06:46.056Z,1.20
2018-07-11T23:09:15.678Z,1.33
2018-07-11T23:11:46.287Z,1.30
2018-07-11T23:14:15.952Z,1.33
2018-07-11T23:16:45.506Z,1.50
2018-07-11T23:19:15.821Z,1.37
2018-07-11T23:21:45.746Z,1.30
2018-07-11T23:24:15.335Z,1.40
2018-07-11T23:26:44.816Z,1.63
2018-07-11T23:29:14.091Z,1.43
2018-07-11T23:31:44.069Z,1.30
2018-07-11T23:34:13.805Z,1.40
2018-07-11T23:36:43.577Z,1.40
2018-07-11T23:39:13.465Z,1.60
2018-07-11T23:41:43.197Z,1.37
2018-07-11T23:44:12.791Z,1.43
2018-07-11T23:46:42.453Z,1.30
2018-07-11T23:49:11.970Z,1.33
2018-07-11T23:51:41.369Z,1.43
2018-07-11T23:54:11.028Z,1.47
2018-07-11T23:56:40.481Z,1.60
2018-07-11T23:59:10.194Z,1.40
